Girolata — FPOD — position and weather

sailwx.info

Track history (hours):
 
Tides and Currents Weather Stations Pressure Air Temp Water Temp Dewpoint Dewpoint Depression Visibility Wind Speed Wind Dir Waves Ship Positions

Girolata

Last reported at 2020-Sep-25 14:23 UTC. Time now 2020-Sep-25 15:45 UTC.
Position N 40°50' E 014°16'.

Length 177 m; beam 27 m.

Type: Passenger vessel. MMSI: 226245000.

Date/timePositionNaut miles runAvg speedWind from/ knotsBaromVisibWave heightAir tempDewpointWater temp
2020-Sep-25 14:23N 40°50' E 014°16'0 0.0
2020-Sep-25 13:59N 40°50' E 014°16'0 0.0
2020-Sep-25 13:29N 40°50' E 014°16'0 0.0
2020-Sep-25 08:26N 40°50' E 014°16'0 0.0
2020-Sep-25 07:26N 40°50' E 014°16'0 0.0
2020-Sep-25 06:59N 40°50' E 014°16'0 0.0
2020-Sep-25 05:56N 40°50' E 014°16'3 1.8
2020-Sep-25 04:00N 40°47' E 014°16'16414.9
2020-Sep-24 16:58N 38°08' E 013°22'0 0.0
2020-Sep-24 15:58N 38°08' E 013°22'0 0.0
2020-Sep-24 15:28N 38°08' E 013°22'0 0.0
2020-Sep-24 13:58N 38°08' E 013°22'0 0.0
2020-Sep-24 07:28N 38°08' E 013°22'0 0.0
2020-Sep-24 06:28N 38°08' E 013°22'0 0.0
2020-Sep-24 05:28N 38°08' E 013°22'24 9.8
2020-Sep-24 03:00N 38°31' E 013°31'917.3
2020-Sep-24 02:30N 38°39' E 013°34'11517.7
2020-Sep-23 20:00N 40°31' E 014°08'1017.9
2020-Sep-23 19:25N 40°41' E 014°13'017.6
2020-Sep-23 19:24N 40°41' E 014°13'717.6
2020-Sep-23 19:00N 40°48' E 014°16'3 0.6
2020-Sep-23 14:55N 40°50' E 014°16'0 0.0
2020-Sep-23 13:55N 40°50' E 014°16'0 0.0
2020-Sep-23 11:55N 40°50' E 014°16'0 0.0
2020-Sep-23 10:55N 40°50' E 014°16'0 0.0
2020-Sep-23 10:25N 40°50' E 014°16'168 9.4
2020-Sep-22 16:28N 38°08' E 013°22'0 0.0
2020-Sep-22 15:58N 38°08' E 013°22'0 0.0
2020-Sep-22 15:28N 38°08' E 013°22'0 0.0
2020-Sep-22 11:58N 38°08' E 013°22'0 0.0
2020-Sep-22 10:58N 38°08' E 013°22'0 0.0
2020-Sep-22 09:58N 38°08' E 013°22'0 0.0
2020-Sep-22 09:28N 38°08' E 013°22'0 0.0
2020-Sep-22 07:58N 38°08' E 013°22'0 0.0
2020-Sep-22 07:28N 38°08' E 013°22'0 0.0
2020-Sep-22 06:58N 38°08' E 013°22'0 0.0
2020-Sep-22 04:58N 38°08' E 013°22'2 1.7
2020-Sep-22 04:00N 38°08' E 013°24'816.0
2020-Sep-22 03:30N 38°16' E 013°27'12317.6
2020-Sep-21 20:30N 40°16' E 014°03'3611.7
2020-Sep-21 17:27N 40°50' E 014°16'0 0.0
2020-Sep-21 15:54N 40°50' E 014°16'0 0.0
2020-Sep-21 14:00N 40°50' E 014°16'0 0.0
2020-Sep-21 10:30N 40°50' E 014°16'0 0.0
2020-Sep-21 08:30N 40°50' E 014°16'0 0.0
2020-Sep-21 07:30N 40°50' E 014°16'0 0.0
2020-Sep-21 05:30N 40°50' E 014°16'16716.7
2020-Sep-20 19:30N 38°08' E 013°25'2 4.0
2020-Sep-20 18:58N 38°08' E 013°22'0 0.0
2020-Sep-20 17:58N 38°08' E 013°22'0 0.0
2020-Sep-20 17:28N 38°08' E 013°22'0 0.0
2020-Sep-20 16:58N 38°08' E 013°22'0 0.0
2020-Sep-20 16:28N 38°08' E 013°22'0 0.0
2020-Sep-20 15:58N 38°08' E 013°22'0 0.0
2020-Sep-20 14:28N 38°08' E 013°22'0 0.0
2020-Sep-20 12:28N 38°08' E 013°22'0 0.0
2020-Sep-20 11:58N 38°08' E 013°22'0 0.0
2020-Sep-20 11:28N 38°08' E 013°22'0 0.0
2020-Sep-20 10:28N 38°08' E 013°22'0 0.0
2020-Sep-20 08:28N 38°08' E 013°22'0 0.0
2020-Sep-20 06:58N 38°08' E 013°22'0 0.0
2020-Sep-20 05:58N 38°08' E 013°22'6711.0
2020-Sep-19 23:56N 39°13' E 013°42'6517.4
2020-Sep-19 20:12N 40°16' E 014°03'2117.7
2020-Sep-19 19:00N 40°36' E 014°09'15 9.6
2020-Sep-19 17:27N 40°50' E 014°16'0 0.0
2020-Sep-19 16:30N 40°50' E 014°16'0 0.0
2020-Sep-19 14:00N 40°50' E 014°16'0 0.0
2020-Sep-19 11:00N 40°50' E 014°16'0 0.0
2020-Sep-19 10:00N 40°50' E 014°16'0 0.0
2020-Sep-19 07:24N 40°50' E 014°16'0 0.0
2020-Sep-19 06:57N 40°50' E 014°16'0 0.0
2020-Sep-19 05:00N 40°50' E 014°16'0 0.0
2020-Sep-19 04:30N 40°50' E 014°16'2713.5
2020-Sep-19 02:30N 40°25' E 014°06'2417.2
2020-Sep-19 01:07N 40°01' E 013°59'4917.2
2020-Sep-18 22:16N 39°13' E 013°44'3917.3
2020-Sep-18 20:00N 38°35' E 013°32'1717.5
2020-Sep-18 19:01N 38°18' E 013°28'1111.4
2020-Sep-18 18:00N 38°08' E 013°22'0 0.0
2020-Sep-18 14:58N 38°08' E 013°22'0 0.0
2020-Sep-18 13:28N 38°08' E 013°22'0 0.0
2020-Sep-18 10:28N 38°08' E 013°22'0 0.0
2020-Sep-18 07:28N 38°08' E 013°22'0 0.0
2020-Sep-18 06:58N 38°08' E 013°22'0 0.0
2020-Sep-18 04:58N 38°08' E 013°22'16 8.4
2020-Sep-18 03:00N 38°23' E 013°29'4317.7
2020-Sep-18 00:36N 39°05' E 013°41'9318.2
2020-Sep-17 19:30N 40°35' E 014°09'16 6.4
2020-Sep-17 17:00N 40°50' E 014°16'0 0.0
2020-Sep-17 15:27N 40°50' E 014°16'0 0.0
2020-Sep-17 14:30N 40°50' E 014°16'0 0.0
2020-Sep-17 12:00N 40°50' E 014°16'0 0.0
2020-Sep-17 08:00N 40°50' E 014°16'0 0.0
2020-Sep-17 07:30N 40°50' E 014°16'0 0.0
2020-Sep-17 07:00N 40°50' E 014°16'0 0.0
2020-Sep-17 06:30N 40°50' E 014°16'13 4.3
2020-Sep-17 03:30N 40°38' E 014°11'1017.4
2020-Sep-17 02:56N 40°29' E 014°07'2717.4
2020-Sep-17 01:23N 40°02' E 013°59'1017.1
2020-Sep-17 00:48N 39°53' E 013°56'7417.2
2020-Sep-16 20:31N 38°41' E 013°34'3517.3
2020-Sep-16 18:30N 38°07' E 013°23'1 1.9
2020-Sep-16 17:58N 38°08' E 013°22'0 0.0
2020-Sep-16 16:58N 38°08' E 013°22'0 0.0
2020-Sep-16 16:28N 38°08' E 013°22'0 0.0
2020-Sep-16 11:58N 38°08' E 013°22'0 0.0
2020-Sep-16 06:58N 38°08' E 013°22'0 0.0
2020-Sep-16 04:58N 38°08' E 013°22'1 1.4
2020-Sep-16 04:30N 38°07' E 013°23'510.7
2020-Sep-16 04:01N 38°12' E 013°26'1717.4
2020-Sep-16 03:01N 38°29' E 013°31'5317.7
2020-Sep-16 00:01N 39°21' E 013°45'917.5
2020-Sep-15 23:31N 39°30' E 013°47'1817.6
2020-Sep-15 22:31N 39°46' E 013°54'3718.0
2020-Sep-15 20:28N 40°22' E 014°05'  
Track history (hours):
 
Tides and Currents Weather Stations Pressure Air Temp Water Temp Dewpoint Dewpoint Depression Visibility Wind Speed Wind Dir Waves Ship Positions

Girolata

Last reported at 2020-Sep-25 14:23 UTC. Time now 2020-Sep-25 15:45 UTC.
Position N 40°50' E 014°16'.

Length 177 m; beam 27 m.

Type: Passenger vessel. MMSI: 226245000.

Date/timePositionNaut miles runAvg speedWind from/ knotsBaromVisibWave heightAir tempDewpointWater temp
2020-Sep-25 14:23N 40°50' E 014°16'0 0.0
2020-Sep-25 13:59N 40°50' E 014°16'0 0.0
2020-Sep-25 13:29N 40°50' E 014°16'0 0.0
2020-Sep-25 08:26N 40°50' E 014°16'0 0.0
2020-Sep-25 07:26N 40°50' E 014°16'0 0.0
2020-Sep-25 06:59N 40°50' E 014°16'0 0.0
2020-Sep-25 05:56N 40°50' E 014°16'3 1.8
2020-Sep-25 04:00N 40°47' E 014°16'16414.9
2020-Sep-24 16:58N 38°08' E 013°22'0 0.0
2020-Sep-24 15:58N 38°08' E 013°22'0 0.0
2020-Sep-24 15:28N 38°08' E 013°22'0 0.0
2020-Sep-24 13:58N 38°08' E 013°22'0 0.0
2020-Sep-24 07:28N 38°08' E 013°22'0 0.0
2020-Sep-24 06:28N 38°08' E 013°22'0 0.0
2020-Sep-24 05:28N 38°08' E 013°22'24 9.8
2020-Sep-24 03:00N 38°31' E 013°31'917.3
2020-Sep-24 02:30N 38°39' E 013°34'11517.7
2020-Sep-23 20:00N 40°31' E 014°08'1017.9
2020-Sep-23 19:25N 40°41' E 014°13'017.6
2020-Sep-23 19:24N 40°41' E 014°13'717.6
2020-Sep-23 19:00N 40°48' E 014°16'3 0.6
2020-Sep-23 14:55N 40°50' E 014°16'0 0.0
2020-Sep-23 13:55N 40°50' E 014°16'0 0.0
2020-Sep-23 11:55N 40°50' E 014°16'0 0.0
2020-Sep-23 10:55N 40°50' E 014°16'0 0.0
2020-Sep-23 10:25N 40°50' E 014°16'168 9.4
2020-Sep-22 16:28N 38°08' E 013°22'0 0.0
2020-Sep-22 15:58N 38°08' E 013°22'0 0.0
2020-Sep-22 15:28N 38°08' E 013°22'0 0.0
2020-Sep-22 11:58N 38°08' E 013°22'0 0.0
2020-Sep-22 10:58N 38°08' E 013°22'0 0.0
2020-Sep-22 09:58N 38°08' E 013°22'0 0.0
2020-Sep-22 09:28N 38°08' E 013°22'0 0.0
2020-Sep-22 07:58N 38°08' E 013°22'0 0.0
2020-Sep-22 07:28N 38°08' E 013°22'0 0.0
2020-Sep-22 06:58N 38°08' E 013°22'0 0.0
2020-Sep-22 04:58N 38°08' E 013°22'2 1.7
2020-Sep-22 04:00N 38°08' E 013°24'816.0
2020-Sep-22 03:30N 38°16' E 013°27'12317.6
2020-Sep-21 20:30N 40°16' E 014°03'3611.7
2020-Sep-21 17:27N 40°50' E 014°16'0 0.0
2020-Sep-21 15:54N 40°50' E 014°16'0 0.0
2020-Sep-21 14:00N 40°50' E 014°16'0 0.0
2020-Sep-21 10:30N 40°50' E 014°16'0 0.0
2020-Sep-21 08:30N 40°50' E 014°16'0 0.0
2020-Sep-21 07:30N 40°50' E 014°16'0 0.0
2020-Sep-21 05:30N 40°50' E 014°16'16716.7
2020-Sep-20 19:30N 38°08' E 013°25'2 4.0
2020-Sep-20 18:58N 38°08' E 013°22'0 0.0
2020-Sep-20 17:58N 38°08' E 013°22'0 0.0
2020-Sep-20 17:28N 38°08' E 013°22'0 0.0
2020-Sep-20 16:58N 38°08' E 013°22'0 0.0
2020-Sep-20 16:28N 38°08' E 013°22'0 0.0
2020-Sep-20 15:58N 38°08' E 013°22'0 0.0
2020-Sep-20 14:28N 38°08' E 013°22'0 0.0
2020-Sep-20 12:28N 38°08' E 013°22'0 0.0
2020-Sep-20 11:58N 38°08' E 013°22'0 0.0
2020-Sep-20 11:28N 38°08' E 013°22'0 0.0
2020-Sep-20 10:28N 38°08' E 013°22'0 0.0
2020-Sep-20 08:28N 38°08' E 013°22'0 0.0
2020-Sep-20 06:58N 38°08' E 013°22'0 0.0
2020-Sep-20 05:58N 38°08' E 013°22'6711.0
2020-Sep-19 23:56N 39°13' E 013°42'6517.4
2020-Sep-19 20:12N 40°16' E 014°03'2117.7
2020-Sep-19 19:00N 40°36' E 014°09'15 9.6
2020-Sep-19 17:27N 40°50' E 014°16'0 0.0
2020-Sep-19 16:30N 40°50' E 014°16'0 0.0
2020-Sep-19 14:00N 40°50' E 014°16'0 0.0
2020-Sep-19 11:00N 40°50' E 014°16'0 0.0
2020-Sep-19 10:00N 40°50' E 014°16'0 0.0
2020-Sep-19 07:24N 40°50' E 014°16'0 0.0
2020-Sep-19 06:57N 40°50' E 014°16'0 0.0
2020-Sep-19 05:00N 40°50' E 014°16'0 0.0
2020-Sep-19 04:30N 40°50' E 014°16'2713.5
2020-Sep-19 02:30N 40°25' E 014°06'2417.2
2020-Sep-19 01:07N 40°01' E 013°59'4917.2
2020-Sep-18 22:16N 39°13' E 013°44'3917.3
2020-Sep-18 20:00N 38°35' E 013°32'1717.5
2020-Sep-18 19:01N 38°18' E 013°28'1111.4
2020-Sep-18 18:00N 38°08' E 013°22'0 0.0
2020-Sep-18 14:58N 38°08' E 013°22'0 0.0
2020-Sep-18 13:28N 38°08' E 013°22'0 0.0
2020-Sep-18 10:28N 38°08' E 013°22'0 0.0
2020-Sep-18 07:28N 38°08' E 013°22'0 0.0
2020-Sep-18 06:58N 38°08' E 013°22'0 0.0
2020-Sep-18 04:58N 38°08' E 013°22'16 8.4
2020-Sep-18 03:00N 38°23' E 013°29'4317.7
2020-Sep-18 00:36N 39°05' E 013°41'9318.2
2020-Sep-17 19:30N 40°35' E 014°09'16 6.4
2020-Sep-17 17:00N 40°50' E 014°16'0 0.0
2020-Sep-17 15:27N 40°50' E 014°16'0 0.0
2020-Sep-17 14:30N 40°50' E 014°16'0 0.0
2020-Sep-17 12:00N 40°50' E 014°16'0 0.0
2020-Sep-17 08:00N 40°50' E 014°16'0 0.0
2020-Sep-17 07:30N 40°50' E 014°16'0 0.0
2020-Sep-17 07:00N 40°50' E 014°16'0 0.0
2020-Sep-17 06:30N 40°50' E 014°16'13 4.3
2020-Sep-17 03:30N 40°38' E 014°11'1017.4
2020-Sep-17 02:56N 40°29' E 014°07'2717.4
2020-Sep-17 01:23N 40°02' E 013°59'1017.1
2020-Sep-17 00:48N 39°53' E 013°56'7417.2
2020-Sep-16 20:31N 38°41' E 013°34'3517.3
2020-Sep-16 18:30N 38°07' E 013°23'1 1.9
2020-Sep-16 17:58N 38°08' E 013°22'0 0.0
2020-Sep-16 16:58N 38°08' E 013°22'0 0.0
2020-Sep-16 16:28N 38°08' E 013°22'0 0.0
2020-Sep-16 11:58N 38°08' E 013°22'0 0.0
2020-Sep-16 06:58N 38°08' E 013°22'0 0.0
2020-Sep-16 04:58N 38°08' E 013°22'1 1.4
2020-Sep-16 04:30N 38°07' E 013°23'510.7
2020-Sep-16 04:01N 38°12' E 013°26'1717.4
2020-Sep-16 03:01N 38°29' E 013°31'5317.7
2020-Sep-16 00:01N 39°21' E 013°45'917.5
2020-Sep-15 23:31N 39°30' E 013°47'1817.6
2020-Sep-15 22:31N 39°46' E 013°54'3718.0
2020-Sep-15 20:28N 40°22' E 014°05'  

Dump ship's entire track history